BITO weather

Thorisos Airport
Thorisos, Southern Region, Iceland

Public forecast

Using degrees Celsius for public forecast. Weather courtesy of forecast.io.

Closest aviation weather report (METAR) to Thorisos Airport

Closest report is Vestmannaeyjar Airport, 67.2 nm (124.4 km) SW. Retrieved 2019/10/22 14:00 UTC (59 minutes ago):

BIVM 221400Z 35007KT 290V020 9999 FEW015 SCT030 02/00 Q1006

Closest aviation forecast (TAF) to Thorisos Airport

Closest forecast is Akureyri Airport, 81.1 nm (150.2 km) NNE. Retrieved 2019/10/22 15:24 UTC (0 seconds ago):

TAF TAF BIAR 221322Z 2215/2315 35010KT 9000 -SHSN SCT010 BKN020 TXM01/2215Z TNM05/2315Z TEMPO 2215/2315 1500 SHSN OVC005 TEMPO 2215/2306 05020G30KT